sensor_id;sensor_type;location;lat;lon;timestamp;pressure;altitude;pressure_sealevel;temperature;humidity
6136;BME280;24008;42.664;23.372;2023-04-25T00:01:29;94019.22;;;10.20;100.00
6136;BME280;24008;42.664;23.372;2023-04-25T00:03:57;94009.16;;;10.18;100.00
6136;BME280;24008;42.664;23.372;2023-04-25T00:06:24;94011.72;;;10.18;100.00
6136;BME280;24008;42.664;23.372;2023-04-25T00:08:52;93832.56;;;8.98;100.00
6136;BME280;24008;42.664;23.372;2023-04-25T00:11:18;93848.50;;;9.08;100.00
6136;BME280;24008;42.664;23.372;2023-04-25T00:13:45;93992.09;;;10.19;100.00
6136;BME280;24008;42.664;23.372;2023-04-25T00:16:13;93988.22;;;10.15;100.00
6136;BME280;24008;42.664;23.372;2023-04-25T00:18:41;93980.69;;;10.05;100.00
6136;BME280;24008;42.664;23.372;2023-04-25T00:21:09;93983.41;;;10.03;100.00
6136;BME280;24008;42.664;23.372;2023-04-25T00:23:36;93883.69;;;9.38;100.00
6136;BME280;24008;42.664;23.372;2023-04-25T00:26:04;93970.03;;;10.01;100.00
6136;BME280;24008;42.664;23.372;2023-04-25T00:28:31;93961.06;;;10.05;100.00
6136;BME280;24008;42.664;23.372;2023-04-25T00:30:58;93889.81;;;9.54;100.00
6136;BME280;24008;42.664;23.372;2023-04-25T00:33:25;93954.50;;;9.95;100.00
6136;BME280;24008;42.664;23.372;2023-04-25T00:35:51;93948.91;;;9.91;100.00
6136;BME280;24008;42.664;23.372;2023-04-25T00:38:20;93939.63;;;9.74;100.00
6136;BME280;24008;42.664;23.372;2023-04-25T00:40:47;93873.31;;;9.32;100.00
6136;BME280;24008;42.664;23.372;2023-04-25T00:43:14;93824.59;;;9.01;100.00
6136;BME280;24008;42.664;23.372;2023-04-25T00:45:43;93961.66;;;9.83;100.00
6136;BME280;24008;42.664;23.372;2023-04-25T00:48:10;93943.94;;;9.82;100.00
6136;BME280;24008;42.664;23.372;2023-04-25T00:50:37;93945.38;;;9.76;100.00
6136;BME280;24008;42.664;23.372;2023-04-25T00:53:04;93914.19;;;9.56;100.00
6136;BME280;24008;42.664;23.372;2023-04-25T00:55:33;93860.19;;;9.19;100.00
6136;BME280;24008;42.664;23.372;2023-04-25T00:58:01;93955.38;;;9.69;100.00
6136;BME280;24008;42.664;23.372;2023-04-25T01:00:28;93867.53;;;9.22;100.00
6136;BME280;24008;42.664;23.372;2023-04-25T01:02:55;93940.28;;;9.76;100.00
6136;BME280;24008;42.664;23.372;2023-04-25T01:05:22;93776.66;;;8.62;100.00
6136;BME280;24008;42.664;23.372;2023-04-25T01:07:49;93944.06;;;9.72;100.00
6136;BME280;24008;42.664;23.372;2023-04-25T01:10:16;93939.94;;;9.71;100.00
6136;BME280;24008;42.664;23.372;2023-04-25T01:12:44;93931.97;;;9.74;100.00
6136;BME280;24008;42.664;23.372;2023-04-25T01:15:10;93925.25;;;9.73;100.00
6136;BME280;24008;42.664;23.372;2023-04-25T01:17:37;93736.69;;;8.55;100.00
6136;BME280;24008;42.664;23.372;2023-04-25T01:20:05;93913.94;;;9.75;100.00
6136;BME280;24008;42.664;23.372;2023-04-25T01:22:36;93914.75;;;9.76;100.00
6136;BME280;24008;42.664;23.372;2023-04-25T01:25:04;93825.16;;;9.21;100.00
6136;BME280;24008;42.664;23.372;2023-04-25T01:27:31;93497.72;;;6.82;100.00
6136;BME280;24008;42.664;23.372;2023-04-25T01:29:59;93578.75;;;7.63;100.00
6136;BME280;24008;42.664;23.372;2023-04-25T01:32:26;93774.72;;;8.90;100.00
6136;BME280;24008;42.664;23.372;2023-04-25T01:34:53;93808.66;;;8.91;100.00
6136;BME280;24008;42.664;23.372;2023-04-25T01:37:20;93900.69;;;9.64;100.00
6136;BME280;24008;42.664;23.372;2023-04-25T01:39:48;93916.16;;;9.62;100.00
6136;BME280;24008;42.664;23.372;2023-04-25T01:42:15;93927.16;;;9.63;100.00
6136;BME280;24008;42.664;23.372;2023-04-25T01:44:42;93916.59;;;9.58;100.00
6136;BME280;24008;42.664;23.372;2023-04-25T01:47:09;93916.91;;;9.55;100.00
6136;BME280;24008;42.664;23.372;2023-04-25T01:49:35;93917.22;;;9.52;100.00
6136;BME280;24008;42.664;23.372;2023-04-25T01:52:02;93912.94;;;9.52;100.00
6136;BME280;24008;42.664;23.372;2023-04-25T01:54:29;93860.81;;;9.13;100.00
6136;BME280;24008;42.664;23.372;2023-04-25T01:56:58;93926.13;;;9.48;100.00
6136;BME280;24008;42.664;23.372;2023-04-25T01:59:25;93930.09;;;9.42;100.00
6136;BME280;24008;42.664;23.372;2023-04-25T02:01:51;93917.81;;;9.37;100.00
6136;BME280;24008;42.664;23.372;2023-04-25T02:04:18;93866.47;;;8.98;100.00
6136;BME280;24008;42.664;23.372;2023-04-25T02:06:45;93917.78;;;9.29;100.00
6136;BME280;24008;42.664;23.372;2023-04-25T02:09:12;93921.56;;;9.25;100.00
6136;BME280;24008;42.664;23.372;2023-04-25T02:11:38;93854.81;;;8.88;100.00
6136;BME280;24008;42.664;23.372;2023-04-25T02:14:07;93786.78;;;8.03;100.00
6136;BME280;24008;42.664;23.372;2023-04-25T02:16:33;93793.25;;;8.41;100.00
6136;BME280;24008;42.664;23.372;2023-04-25T02:19:01;93559.00;;;7.05;100.00
6136;BME280;24008;42.664;23.372;2023-04-25T02:21:27;93910.72;;;9.23;100.00
6136;BME280;24008;42.664;23.372;2023-04-25T02:23:55;93876.41;;;9.10;100.00
6136;BME280;24008;42.664;23.372;2023-04-25T02:26:22;93540.09;;;6.99;100.00
6136;BME280;24008;42.664;23.372;2023-04-25T02:28:49;93875.66;;;9.17;100.00
6136;BME280;24008;42.664;23.372;2023-04-25T02:31:18;93481.84;;;6.36;100.00
6136;BME280;24008;42.664;23.372;2023-04-25T02:33:45;93784.94;;;8.56;100.00
6136;BME280;24008;42.664;23.372;2023-04-25T02:36:12;93889.50;;;9.15;100.00
6136;BME280;24008;42.664;23.372;2023-04-25T02:38:39;93815.22;;;8.68;100.00
6136;BME280;24008;42.664;23.372;2023-04-25T02:41:05;93732.75;;;8.09;100.00
6136;BME280;24008;42.664;23.372;2023-04-25T02:43:32;93803.03;;;8.53;100.00
6136;BME280;24008;42.664;23.372;2023-04-25T02:45:59;93785.63;;;8.41;100.00
6136;BME280;24008;42.664;23.372;2023-04-25T02:48:27;93334.75;;;5.30;100.00
6136;BME280;24008;42.664;23.372;2023-04-25T02:50:54;93579.94;;;6.99;100.00
6136;BME280;24008;42.664;23.372;2023-04-25T02:53:21;93568.09;;;7.07;100.00
6136;BME280;24008;42.664;23.372;2023-04-25T02:55:48;93461.25;;;6.39;100.00
6136;BME280;24008;42.664;23.372;2023-04-25T02:58:15;93638.00;;;7.37;100.00
6136;BME280;24008;42.664;23.372;2023-04-25T03:00:42;93862.19;;;8.99;100.00
6136;BME280;24008;42.664;23.372;2023-04-25T03:03:10;93505.31;;;6.74;100.00
6136;BME280;24008;42.664;23.372;2023-04-25T03:05:38;93690.94;;;7.85;100.00
6136;BME280;24008;42.664;23.372;2023-04-25T03:08:05;93703.75;;;8.02;100.00
6136;BME280;24008;42.664;23.372;2023-04-25T03:10:32;93340.03;;;5.54;100.00
6136;BME280;24008;42.664;23.372;2023-04-25T03:12:59;93399.66;;;6.11;100.00
6136;BME280;24008;42.664;23.372;2023-04-25T03:15:25;93885.53;;;8.86;100.00
6136;BME280;24008;42.664;23.372;2023-04-25T03:17:52;93687.91;;;8.08;100.00
6136;BME280;24008;42.664;23.372;2023-04-25T03:20:19;93860.16;;;9.11;100.00
6136;BME280;24008;42.664;23.372;2023-04-25T03:22:47;93730.38;;;8.33;100.00
6136;BME280;24008;42.664;23.372;2023-04-25T03:25:14;93487.53;;;6.74;100.00
6136;BME280;24008;42.664;23.372;2023-04-25T03:27:41;93861.59;;;9.05;100.00
6136;BME280;24008;42.664;23.372;2023-04-25T03:30:08;93853.63;;;9.08;100.00
6136;BME280;24008;42.664;23.372;2023-04-25T03:32:35;93511.94;;;6.93;100.00
6136;BME280;24008;42.664;23.372;2023-04-25T03:35:02;93822.34;;;8.98;100.00
6136;BME280;24008;42.664;23.372;2023-04-25T03:37:29;93849.16;;;9.10;100.00
6136;BME280;24008;42.664;23.372;2023-04-25T03:39:57;93792.91;;;8.70;100.00
6136;BME280;24008;42.664;23.372;2023-04-25T03:42:24;93850.78;;;9.19;100.00
6136;BME280;24008;42.664;23.372;2023-04-25T03:44:51;93511.03;;;7.02;100.00
6136;BME280;24008;42.664;23.372;2023-04-25T03:47:18;93457.59;;;6.60;100.00
6136;BME280;24008;42.664;23.372;2023-04-25T03:49:45;93850.69;;;9.29;100.00
6136;BME280;24008;42.664;23.372;2023-04-25T03:52:12;93886.84;;;9.24;100.00
6136;BME280;24008;42.664;23.372;2023-04-25T03:54:38;93582.00;;;7.47;100.00
6136;BME280;24008;42.664;23.372;2023-04-25T03:57:06;93870.09;;;9.30;100.00
6136;BME280;24008;42.664;23.372;2023-04-25T03:59:33;93370.84;;;6.38;100.00
6136;BME280;24008;42.664;23.372;2023-04-25T04:02:00;93480.66;;;7.18;100.00
6136;BME280;24008;42.664;23.372;2023-04-25T04:04:27;93685.59;;;8.56;100.00
6136;BME280;24008;42.664;23.372;2023-04-25T04:06:54;93412.09;;;6.92;100.00
6136;BME280;24008;42.664;23.372;2023-04-25T04:09:21;93740.75;;;8.82;100.00
6136;BME280;24008;42.664;23.372;2023-04-25T04:11:47;93864.34;;;9.78;100.00
6136;BME280;24008;42.664;23.372;2023-04-25T04:14:16;93687.72;;;8.77;100.00
6136;BME280;24008;42.664;23.372;2023-04-25T04:16:42;93771.50;;;9.47;100.00
6136;BME280;24008;42.664;23.372;2023-04-25T04:19:10;93501.09;;;7.76;100.00
6136;BME280;24008;42.664;23.372;2023-04-25T04:21:37;93776.25;;;9.33;100.00
6136;BME280;24008;42.664;23.372;2023-04-25T04:24:04;93836.63;;;10.07;100.00
6136;BME280;24008;42.664;23.372;2023-04-25T04:26:31;93811.56;;;10.11;100.00
6136;BME280;24008;42.664;23.372;2023-04-25T04:28:59;93862.47;;;10.53;100.00
6136;BME280;24008;42.664;23.372;2023-04-25T04:31:29;93863.78;;;10.49;100.00
6136;BME280;24008;42.664;23.372;2023-04-25T04:33:59;93862.16;;;10.40;100.00
6136;BME280;24008;42.664;23.372;2023-04-25T04:36:27;93867.13;;;10.33;100.00
6136;BME280;24008;42.664;23.372;2023-04-25T04:38:53;93865.69;;;10.31;100.00
6136;BME280;24008;42.664;23.372;2023-04-25T04:41:21;93861.09;;;10.26;100.00
6136;BME280;24008;42.664;23.372;2023-04-25T04:43:48;93802.81;;;9.89;100.00
6136;BME280;24008;42.664;23.372;2023-04-25T04:46:15;93632.19;;;8.81;100.00
6136;BME280;24008;42.664;23.372;2023-04-25T04:48:45;93862.19;;;10.24;100.00
6136;BME280;24008;42.664;23.372;2023-04-25T04:51:11;93861.84;;;10.27;100.00
6136;BME280;24008;42.664;23.372;2023-04-25T04:53:38;93862.34;;;10.30;100.00
6136;BME280;24008;42.664;23.372;2023-04-25T04:56:05;93674.28;;;9.17;100.00
6136;BME280;24008;42.664;23.372;2023-04-25T04:58:33;93720.50;;;9.38;100.00
6136;BME280;24008;42.664;23.372;2023-04-25T05:01:00;93889.31;;;10.41;100.00
6136;BME280;24008;42.664;23.372;2023-04-25T05:03:27;93882.28;;;10.43;100.00
6136;BME280;24008;42.664;23.372;2023-04-25T05:05:56;93879.91;;;10.41;100.00
6136;BME280;24008;42.664;23.372;2023-04-25T05:08:22;93877.97;;;10.43;100.00
6136;BME280;24008;42.664;23.372;2023-04-25T05:10:49;93881.19;;;10.45;100.00
6136;BME280;24008;42.664;23.372;2023-04-25T05:13:16;93758.44;;;9.58;100.00
6136;BME280;24008;42.664;23.372;2023-04-25T05:15:42;93882.94;;;10.37;100.00
6136;BME280;24008;42.664;23.372;2023-04-25T05:18:09;93889.97;;;10.35;100.00
6136;BME280;24008;42.664;23.372;2023-04-25T05:20:36;93901.28;;;10.32;100.00
6136;BME280;24008;42.664;23.372;2023-04-25T05:23:04;93884.16;;;10.17;100.00
6136;BME280;24008;42.664;23.372;2023-04-25T05:25:31;93896.53;;;10.37;100.00
6136;BME280;24008;42.664;23.372;2023-04-25T05:27:58;93890.47;;;10.38;100.00
6136;BME280;24008;42.664;23.372;2023-04-25T05:30:25;93885.97;;;10.32;100.00
6136;BME280;24008;42.664;23.372;2023-04-25T05:32:52;93884.88;;;10.35;100.00
6136;BME280;24008;42.664;23.372;2023-04-25T05:35:18;93831.50;;;10.07;100.00
6136;BME280;24008;42.664;23.372;2023-04-25T05:37:45;93888.66;;;10.39;100.00
6136;BME280;24008;42.664;23.372;2023-04-25T05:40:13;93885.81;;;10.42;100.00
6136;BME280;24008;42.664;23.372;2023-04-25T05:42:40;93891.69;;;10.51;100.00
6136;BME280;24008;42.664;23.372;2023-04-25T05:45:07;93902.41;;;10.54;100.00
6136;BME280;24008;42.664;23.372;2023-04-25T05:47:34;93891.22;;;10.55;100.00
6136;BME280;24008;42.664;23.372;2023-04-25T05:50:01;93900.03;;;10.61;100.00
6136;BME280;24008;42.664;23.372;2023-04-25T05:52:28;93890.75;;;10.68;100.00
6136;BME280;24008;42.664;23.372;2023-04-25T05:54:55;93816.53;;;10.21;100.00
6136;BME280;24008;42.664;23.372;2023-04-25T05:57:25;93862.47;;;10.69;100.00
6136;BME280;24008;42.664;23.372;2023-04-25T05:59:53;93714.91;;;9.92;100.00
6136;BME280;24008;42.664;23.372;2023-04-25T06:02:20;93893.22;;;11.08;100.00
6136;BME280;24008;42.664;23.372;2023-04-25T06:04:48;93906.47;;;11.20;100.00
6136;BME280;24008;42.664;23.372;2023-04-25T06:07:15;93894.31;;;11.22;100.00
6136;BME280;24008;42.664;23.372;2023-04-25T06:09:42;93891.88;;;11.29;100.00
6136;BME280;24008;42.664;23.372;2023-04-25T06:12:10;93874.16;;;11.19;100.00
6136;BME280;24008;42.664;23.372;2023-04-25T06:14:38;93891.13;;;11.59;100.00
6136;BME280;24008;42.664;23.372;2023-04-25T06:17:05;93895.06;;;11.78;100.00
6136;BME280;24008;42.664;23.372;2023-04-25T06:19:34;93853.19;;;11.63;100.00
6136;BME280;24008;42.664;23.372;2023-04-25T06:22:01;93895.38;;;12.06;98.52
6136;BME280;24008;42.664;23.372;2023-04-25T06:24:28;93900.28;;;12.15;95.12
6136;BME280;24008;42.664;23.372;2023-04-25T06:26:55;93898.34;;;12.17;94.89
6136;BME280;24008;42.664;23.372;2023-04-25T06:29:22;93895.59;;;12.19;94.33
6136;BME280;24008;42.664;23.372;2023-04-25T06:31:50;93914.63;;;12.24;93.97
6136;BME280;24008;42.664;23.372;2023-04-25T06:34:17;93850.75;;;12.00;93.48
6136;BME280;24008;42.664;23.372;2023-04-25T06:36:43;93903.78;;;12.37;92.46
6136;BME280;24008;42.664;23.372;2023-04-25T06:39:10;93789.13;;;11.79;90.94
6136;BME280;24008;42.664;23.372;2023-04-25T06:41:37;93905.25;;;12.77;91.00
6136;BME280;24008;42.664;23.372;2023-04-25T06:44:04;93905.38;;;13.57;91.21
6136;BME280;24008;42.664;23.372;2023-04-25T06:46:31;93905.53;;;14.43;86.40
6136;BME280;24008;42.664;23.372;2023-04-25T06:48:59;93875.84;;;14.40;80.77
6136;BME280;24008;42.664;23.372;2023-04-25T06:51:26;93917.84;;;14.47;78.25
6136;BME280;24008;42.664;23.372;2023-04-25T06:53:55;93842.81;;;13.80;76.93
6136;BME280;24008;42.664;23.372;2023-04-25T06:56:22;93920.09;;;13.99;76.38
6136;BME280;24008;42.664;23.372;2023-04-25T06:58:49;93912.97;;;13.80;77.93
6136;BME280;24008;42.664;23.372;2023-04-25T07:01:16;93916.78;;;13.55;78.58
6136;BME280;24008;42.664;23.372;2023-04-25T07:03:43;93888.66;;;13.17;79.66
6136;BME280;24008;42.664;23.372;2023-04-25T07:06:11;93862.06;;;12.81;80.04
6136;BME280;24008;42.664;23.372;2023-04-25T07:08:38;93905.53;;;13.12;80.06
6136;BME280;24008;42.664;23.372;2023-04-25T07:11:05;93913.63;;;13.38;81.61
6136;BME280;24008;42.664;23.372;2023-04-25T07:13:31;93875.63;;;13.63;79.25
6136;BME280;24008;42.664;23.372;2023-04-25T07:15:59;93908.78;;;13.94;77.17
6136;BME280;24008;42.664;23.372;2023-04-25T07:18:26;93909.25;;;13.83;77.03
6136;BME280;24008;42.664;23.372;2023-04-25T07:20:52;93848.41;;;13.32;77.68
6136;BME280;24008;42.664;23.372;2023-04-25T07:23:20;93904.88;;;13.47;78.35
6136;BME280;24008;42.664;23.372;2023-04-25T07:25:47;93880.50;;;13.28;79.50
6136;BME280;24008;42.664;23.372;2023-04-25T07:28:14;93907.69;;;13.52;80.47
6136;BME280;24008;42.664;23.372;2023-04-25T07:30:41;93866.91;;;13.28;80.03
6136;BME280;24008;42.664;23.372;2023-04-25T07:33:08;93901.16;;;14.22;80.77
6136;BME280;24008;42.664;23.372;2023-04-25T07:35:35;93871.44;;;14.83;75.37
6136;BME280;24008;42.664;23.372;2023-04-25T07:38:02;93863.94;;;14.88;71.33
6136;BME280;24008;42.664;23.372;2023-04-25T07:40:30;93892.84;;;15.18;70.89
6136;BME280;24008;42.664;23.372;2023-04-25T07:42:57;93886.13;;;15.24;69.80
6136;BME280;24008;42.664;23.372;2023-04-25T07:45:24;93842.38;;;14.89;70.27
6136;BME280;24008;42.664;23.372;2023-04-25T07:47:53;93895.44;;;15.25;70.93
6136;BME280;24008;42.664;23.372;2023-04-25T07:50:19;93836.25;;;14.90;69.45
6136;BME280;24008;42.664;23.372;2023-04-25T07:52:46;93892.28;;;15.23;69.10
6136;BME280;24008;42.664;23.372;2023-04-25T07:55:13;93898.09;;;15.31;69.71
6136;BME280;24008;42.664;23.372;2023-04-25T07:57:41;93895.44;;;15.25;68.76
6136;BME280;24008;42.664;23.372;2023-04-25T08:00:09;93909.31;;;15.24;69.29
6136;BME280;24008;42.664;23.372;2023-04-25T08:02:37;93848.22;;;15.04;69.47
6136;BME280;24008;42.664;23.372;2023-04-25T08:05:04;93836.59;;;15.15;68.71
6136;BME280;24008;42.664;23.372;2023-04-25T08:07:33;93853.41;;;15.52;68.38
6136;BME280;24008;42.664;23.372;2023-04-25T08:10:00;93778.13;;;15.43;67.46
6136;BME280;24008;42.664;23.372;2023-04-25T08:12:27;93807.81;;;16.86;65.86
6136;BME280;24008;42.664;23.372;2023-04-25T08:14:55;93772.81;;;17.61;60.87
6136;BME280;24008;42.664;23.372;2023-04-25T08:17:22;93885.81;;;19.11;57.93
6136;BME280;24008;42.664;23.372;2023-04-25T08:19:48;93878.75;;;20.28;55.02
6136;BME280;24008;42.664;23.372;2023-04-25T08:22:15;93877.53;;;20.72;51.35
6136;BME280;24008;42.664;23.372;2023-04-25T08:24:42;93846.22;;;20.55;50.09
6136;BME280;24008;42.664;23.372;2023-04-25T08:27:09;93871.81;;;20.22;49.60
6136;BME280;24008;42.664;23.372;2023-04-25T08:29:36;93815.31;;;19.46;50.93
6136;BME280;24008;42.664;23.372;2023-04-25T08:32:04;93841.94;;;19.16;52.00
6136;BME280;24008;42.664;23.372;2023-04-25T08:34:31;93814.59;;;19.02;52.75
6136;BME280;24008;42.664;23.372;2023-04-25T08:36:58;93826.25;;;19.29;51.96
6136;BME280;24008;42.664;23.372;2023-04-25T08:39:25;93769.53;;;18.85;52.32
6136;BME280;24008;42.664;23.372;2023-04-25T08:41:52;93858.63;;;19.20;52.86
6136;BME280;24008;42.664;23.372;2023-04-25T08:44:19;93872.94;;;18.80;54.54
6136;BME280;24008;42.664;23.372;2023-04-25T08:46:47;93878.25;;;18.60;56.58
6136;BME280;24008;42.664;23.372;2023-04-25T08:49:17;93881.22;;;17.94;54.65
6136;BME280;24008;42.664;23.372;2023-04-25T08:51:45;93889.09;;;17.54;57.29
6136;BME280;24008;42.664;23.372;2023-04-25T08:54:14;93855.44;;;17.03;59.87
6136;BME280;24008;42.664;23.372;2023-04-25T08:56:43;93827.88;;;16.84;59.50
6136;BME280;24008;42.664;23.372;2023-04-25T08:59:11;93771.09;;;17.42;57.28
6136;BME280;24008;42.664;23.372;2023-04-25T09:01:38;93886.00;;;18.91;60.84
6136;BME280;24008;42.664;23.372;2023-04-25T09:04:05;93821.56;;;19.38;58.37
6136;BME280;24008;42.664;23.372;2023-04-25T09:06:33;93855.38;;;20.28;56.50
6136;BME280;24008;42.664;23.372;2023-04-25T09:09:02;93829.06;;;20.12;54.37
6136;BME280;24008;42.664;23.372;2023-04-25T09:11:30;93850.66;;;21.01;53.00
6136;BME280;24008;42.664;23.372;2023-04-25T09:14:11;93832.00;;;21.16;51.80
6136;BME280;24008;42.664;23.372;2023-04-25T09:16:59;93819.66;;;20.41;52.23
6136;BME280;24008;42.664;23.372;2023-04-25T09:19:28;93855.44;;;20.09;53.90
6136;BME280;24008;42.664;23.372;2023-04-25T09:21:57;93832.47;;;20.90;53.22
6136;BME280;24008;42.664;23.372;2023-04-25T09:24:35;93841.84;;;21.02;48.82
6136;BME280;24008;42.664;23.372;2023-04-25T09:27:05;93820.81;;;20.45;50.66
6136;BME280;24008;42.664;23.372;2023-04-25T09:29:33;93836.56;;;20.02;52.42
6136;BME280;24008;42.664;23.372;2023-04-25T09:32:15;93789.69;;;19.01;53.75
6136;BME280;24008;42.664;23.372;2023-04-25T09:34:43;93838.19;;;18.94;55.70
6136;BME280;24008;42.664;23.372;2023-04-25T09:37:17;93843.94;;;18.40;57.18
6136;BME280;24008;42.664;23.372;2023-04-25T09:39:46;93836.94;;;17.84;57.89
6136;BME280;24008;42.664;23.372;2023-04-25T09:42:13;93744.22;;;17.05;59.38
6136;BME280;24008;42.664;23.372;2023-04-25T09:44:43;93788.50;;;17.08;60.90
6136;BME280;24008;42.664;23.372;2023-04-25T09:47:11;93807.56;;;17.14;61.97
6136;BME280;24008;42.664;23.372;2023-04-25T09:49:40;93833.16;;;17.15;63.09
6136;BME280;24008;42.664;23.372;2023-04-25T09:52:08;93831.63;;;17.01;63.52
6136;BME280;24008;42.664;23.372;2023-04-25T09:54:37;93814.59;;;16.67;65.04
6136;BME280;24008;42.664;23.372;2023-04-25T09:57:10;93837.59;;;16.69;64.63
6136;BME280;24008;42.664;23.372;2023-04-25T09:59:39;93832.25;;;16.77;63.93
6136;BME280;24008;42.664;23.372;2023-04-25T10:02:07;93832.81;;;16.79;62.62
6136;BME280;24008;42.664;23.372;2023-04-25T10:04:35;93840.56;;;16.79;62.94
6136;BME280;24008;42.664;23.372;2023-04-25T10:07:06;93844.75;;;16.73;61.88
6136;BME280;24008;42.664;23.372;2023-04-25T10:09:34;93843.38;;;16.71;61.87
6136;BME280;24008;42.664;23.372;2023-04-25T10:12:05;93715.59;;;15.82;62.15
6136;BME280;24008;42.664;23.372;2023-04-25T10:14:32;93828.50;;;16.66;62.55
6136;BME280;24008;42.664;23.372;2023-04-25T10:16:59;93823.28;;;16.60;62.77
6136;BME280;24008;42.664;23.372;2023-04-25T10:19:27;93821.91;;;16.44;63.94
6136;BME280;24008;42.664;23.372;2023-04-25T10:22:02;93810.19;;;16.15;64.79
6136;BME280;24008;42.664;23.372;2023-04-25T10:24:30;93817.28;;;15.87;66.08
6136;BME280;24008;42.664;23.372;2023-04-25T10:26:57;93861.13;;;16.00;67.25
6136;BME280;24008;42.664;23.372;2023-04-25T10:29:26;93777.09;;;15.38;71.15
6136;BME280;24008;42.664;23.372;2023-04-25T10:31:53;93830.69;;;15.62;74.52
6136;BME280;24008;42.664;23.372;2023-04-25T10:34:24;93760.09;;;15.50;71.39
6136;BME280;24008;42.664;23.372;2023-04-25T10:36:52;93827.19;;;17.21;61.16
6136;BME280;24008;42.664;23.372;2023-04-25T10:39:23;93830.47;;;18.62;54.77
6136;BME280;24008;42.664;23.372;2023-04-25T10:41:56;93817.34;;;19.62;53.75
6136;BME280;24008;42.664;23.372;2023-04-25T10:44:27;93813.97;;;19.91;54.50
6136;BME280;24008;42.664;23.372;2023-04-25T10:46:55;93822.97;;;20.19;53.99
6136;BME280;24008;42.664;23.372;2023-04-25T10:49:31;93757.28;;;19.65;53.93
6136;BME280;24008;42.664;23.372;2023-04-25T10:52:15;93839.88;;;18.82;52.56
6136;BME280;24008;42.664;23.372;2023-04-25T10:54:46;93838.59;;;18.91;52.90
6136;BME280;24008;42.664;23.372;2023-04-25T10:57:30;93839.88;;;18.50;53.46
6136;BME280;24008;42.664;23.372;2023-04-25T11:00:17;93839.19;;;18.05;55.78
6136;BME280;24008;42.664;23.372;2023-04-25T11:02:45;93833.84;;;17.55;54.27
6136;BME280;24008;42.664;23.372;2023-04-25T11:05:22;93801.44;;;17.02;54.54
6136;BME280;24008;42.664;23.372;2023-04-25T11:07:50;93776.28;;;16.71;55.72
6136;BME280;24008;42.664;23.372;2023-04-25T11:10:18;93706.25;;;16.34;55.53
6136;BME280;24008;42.664;23.372;2023-04-25T11:12:45;93811.75;;;17.08;56.44
6136;BME280;24008;42.664;23.372;2023-04-25T11:15:13;93812.34;;;17.10;57.20
6136;BME280;24008;42.664;23.372;2023-04-25T11:17:41;93795.50;;;16.88;58.46
6136;BME280;24008;42.664;23.372;2023-04-25T11:20:10;93763.19;;;16.39;59.58
6136;BME280;24008;42.664;23.372;2023-04-25T11:22:39;93704.66;;;15.61;61.08
6136;BME280;24008;42.664;23.372;2023-04-25T11:25:08;93724.22;;;15.42;62.07
6136;BME280;24008;42.664;23.372;2023-04-25T11:27:38;93738.47;;;15.38;63.25
6136;BME280;24008;42.664;23.372;2023-04-25T11:30:13;93668.03;;;14.85;64.48
6136;BME280;24008;42.664;23.372;2023-04-25T11:32:43;93814.66;;;15.67;65.97
6136;BME280;24008;42.664;23.372;2023-04-25T11:35:11;93815.94;;;15.43;65.17
6136;BME280;24008;42.664;23.372;2023-04-25T11:37:39;93612.75;;;13.92;66.26
6136;BME280;24008;42.664;23.372;2023-04-25T11:40:07;93818.34;;;15.10;68.22
6136;BME280;24008;42.664;23.372;2023-04-25T11:42:36;93757.31;;;14.56;69.08
6136;BME280;24008;42.664;23.372;2023-04-25T11:45:03;93693.69;;;14.09;68.97
6136;BME280;24008;42.664;23.372;2023-04-25T11:47:31;93822.00;;;14.88;70.13
6136;BME280;24008;42.664;23.372;2023-04-25T11:50:00;93833.47;;;14.85;71.26
6136;BME280;24008;42.664;23.372;2023-04-25T11:52:38;93792.88;;;14.53;75.14
6136;BME280;24008;42.664;23.372;2023-04-25T11:55:07;93782.88;;;14.36;76.75
6136;BME280;24008;42.664;23.372;2023-04-25T11:57:34;93844.47;;;14.72;79.33
6136;BME280;24008;42.664;23.372;2023-04-25T12:00:09;93828.78;;;14.39;74.93
6136;BME280;24008;42.664;23.372;2023-04-25T12:02:40;93838.03;;;14.13;71.84
6136;BME280;24008;42.664;23.372;2023-04-25T12:05:09;93827.06;;;13.83;74.32
6136;BME280;24008;42.664;23.372;2023-04-25T12:07:36;93815.28;;;13.52;76.11
6136;BME280;24008;42.664;23.372;2023-04-25T12:10:07;93816.06;;;13.53;77.06
6136;BME280;24008;42.664;23.372;2023-04-25T12:12:34;93691.84;;;12.96;76.13
6136;BME280;24008;42.664;23.372;2023-04-25T12:15:09;93631.94;;;13.04;77.01
6136;BME280;24008;42.664;23.372;2023-04-25T12:17:36;93809.28;;;14.52;76.30
6136;BME280;24008;42.664;23.372;2023-04-25T12:20:10;93795.38;;;14.74;73.94
6136;BME280;24008;42.664;23.372;2023-04-25T12:22:40;93742.75;;;14.70;73.12
6136;BME280;24008;42.664;23.372;2023-04-25T12:25:10;93763.94;;;15.13;69.50
6136;BME280;24008;42.664;23.372;2023-04-25T12:27:37;93795.41;;;15.56;68.52
6136;BME280;24008;42.664;23.372;2023-04-25T12:30:06;93796.22;;;15.63;64.82
6136;BME280;24008;42.664;23.372;2023-04-25T12:32:33;93782.59;;;15.82;64.32
6136;BME280;24008;42.664;23.372;2023-04-25T12:35:00;93743.94;;;15.76;62.37
6136;BME280;24008;42.664;23.372;2023-04-25T12:37:29;93794.75;;;16.28;61.58
6136;BME280;24008;42.664;23.372;2023-04-25T12:39:56;93800.66;;;16.55;62.86
6136;BME280;24008;42.664;23.372;2023-04-25T12:42:23;93828.06;;;16.82;60.98
6136;BME280;24008;42.664;23.372;2023-04-25T12:44:50;93765.38;;;15.90;64.27
6136;BME280;24008;42.664;23.372;2023-04-25T12:47:17;93754.31;;;14.87;68.51
6136;BME280;24008;42.664;23.372;2023-04-25T12:49:44;93787.00;;;14.59;71.96
6136;BME280;24008;42.664;23.372;2023-04-25T12:52:10;93864.38;;;14.64;75.88
6136;BME280;24008;42.664;23.372;2023-04-25T12:54:38;93863.09;;;14.32;77.82
6136;BME280;24008;42.664;23.372;2023-04-25T12:57:05;93633.00;;;12.74;78.09
6136;BME280;24008;42.664;23.372;2023-04-25T12:59:32;93862.69;;;13.71;79.55
6136;BME280;24008;42.664;23.372;2023-04-25T13:01:59;93813.38;;;13.25;80.34